Descanso, CA

4:41 AM PST on November 26, 2014 (GMT -0800)
Sherilton Valley | Change Station
CLOSE
Current Station
Personal Weather Station
Location: Descanso, CA
Elevation: 3264 ft
Nearby Weather Stations
Active Advisory: Fire Weather Warning

Elev 3264 ft 32.90 °N, 116.62 °W | Updated 2 minutes ago

Clear
Clear
63.7 °F
Feels Like 63.7 °F
N
0.0
Wind Variable Wind from ENE
Gusts 2.0 mph

Today
High -- | Low -- °F
--% Chance of Precip.
Yesterday
High -- | Low -- °F
Precip. -- in
6:27 AM 4:40 PM
Waxing Crescent, 19% visible
Pressure 30.19 in
Visibility -9999.0 miles
Clouds
Dew Point 19 °F
Humidity 18%
Rainfall 0.00 in
Snow Depth Not available.
UV Not available.
Pollen 2.60 out of 12
Air Quality Not available.
Flu Activity Not available.
METAR KCZZ 261152Z AUTO 08014KT 10/M14 A3025 RMK AO1 SLP223 T01001139 10128 20044 58010

More Conditions Fewer Conditions

Pressure 30.19 in
Visibility -9999.0 miles
Clouds
Dew Point 19 °F
Humidity 18%
Rainfall 0.00 in
Snow Depth Not available.
UV Not available.
Pollen 2.60 out of 12
Air Quality Not available.
Flu Activity Not available.
METAR KCZZ 261152Z AUTO 08014KT 10/M14 A3025 RMK AO1 SLP223 T01001139 10128 20044 58010

More Conditions Fewer Conditions

10-Day Weather Forecast

Almanac

Astronomy

Nov. 26, 2014 Rise Set
Actual Time
Civil Twilight
Nautical Twilight
Astronomical Twilight
Moon
Length of Visible Light
Length of Day
Tomorrow will be .
, % of the Moon is Illuminated

Today's Extremes

State Highs State Lows

Community

WunderPhotos

Upload Photos

1,773,715 photos uploaded!

WunderBlogs® & News

Nearby

Air Quality

  Air Quality AQ Index Pollutant
Not available.

Snow Depth

Station Depth Elevation

Earthquake Activity

City Distance Mag. Time & Date
Minimum magnitude displayed is 2.5.

Coastal Water Temperatures

Place Temperature

Nearby Weather Stations